createdAt,value
2022-08-05T00:01:00.940Z,0.00
2022-08-05T00:02:07.880Z,0.00
2022-08-05T00:02:58.429Z,0.00
2022-08-05T00:03:58.414Z,0.00
2022-08-05T00:04:58.416Z,0.00
2022-08-05T00:06:04.961Z,0.00
2022-08-05T00:06:58.414Z,0.00
2022-08-05T00:08:00.158Z,0.00
2022-08-05T00:08:58.417Z,0.00
2022-08-05T00:09:58.419Z,0.00
2022-08-05T00:11:00.927Z,0.00
2022-08-05T00:11:59.772Z,0.00
2022-08-05T00:12:58.423Z,0.00
2022-08-05T00:13:58.428Z,0.00
2022-08-05T00:14:58.425Z,0.00
2022-08-05T00:16:00.340Z,0.00
2022-08-05T00:16:58.442Z,0.00
2022-08-05T00:17:58.433Z,0.00
2022-08-05T00:18:58.922Z,0.00
2022-08-05T00:20:02.411Z,0.00
2022-08-05T00:20:58.435Z,0.00
2022-08-05T00:21:58.436Z,0.00
2022-08-05T00:23:02.491Z,0.00
2022-08-05T00:24:10.622Z,0.00
2022-08-05T00:24:58.442Z,0.00
2022-08-05T00:25:58.441Z,0.00
2022-08-05T00:26:58.700Z,0.00
2022-08-05T00:27:58.449Z,0.00
2022-08-05T00:28:58.447Z,0.00
2022-08-05T00:29:58.453Z,0.00
2022-08-05T00:30:58.449Z,0.00
2022-08-05T00:32:11.001Z,0.00
2022-08-05T00:32:58.452Z,0.00
2022-08-05T00:34:56.930Z,0.00
2022-08-05T00:35:06.804Z,0.00
2022-08-05T00:36:16.062Z,0.00
2022-08-05T00:37:10.690Z,0.00
2022-08-05T00:37:58.455Z,0.00
2022-08-05T00:38:59.447Z,0.00
2022-08-05T00:39:59.288Z,0.00
2022-08-05T00:40:58.461Z,0.00
2022-08-05T00:41:58.465Z,0.00
2022-08-05T00:42:58.474Z,0.00
2022-08-05T00:43:58.468Z,0.00
2022-08-05T00:44:58.466Z,0.00
2022-08-05T00:45:58.469Z,0.00
2022-08-05T00:47:02.973Z,0.00
2022-08-05T00:48:05.500Z,0.00
2022-08-05T00:48:58.471Z,0.00
2022-08-05T00:49:58.472Z,0.00
2022-08-05T00:50:58.473Z,0.00
2022-08-05T00:51:58.476Z,0.00
2022-08-05T00:52:58.473Z,0.00
2022-08-05T00:54:02.565Z,0.00
2022-08-05T00:54:58.472Z,0.00
2022-08-05T00:55:58.474Z,0.00
2022-08-05T00:56:58.478Z,0.00
2022-08-05T00:57:59.374Z,0.00
2022-08-05T00:58:58.479Z,0.00
2022-08-05T00:59:58.482Z,0.00
2022-08-05T01:00:58.560Z,0.00
2022-08-05T01:01:58.547Z,0.00
2022-08-05T01:02:59.946Z,0.00
2022-08-05T01:03:58.485Z,0.00
2022-08-05T01:04:58.487Z,0.00
2022-08-05T01:05:58.488Z,0.00
2022-08-05T01:06:58.485Z,0.00
2022-08-05T01:08:39.898Z,0.00
2022-08-05T01:08:58.486Z,0.00
2022-08-05T01:09:58.488Z,0.00
2022-08-05T01:10:58.486Z,0.00
2022-08-05T01:12:01.911Z,0.00
2022-08-05T01:13:05.414Z,0.00
2022-08-05T01:13:59.724Z,0.00
2022-08-05T01:14:58.492Z,0.00
2022-08-05T01:15:58.493Z,0.00
2022-08-05T01:16:58.497Z,0.00
2022-08-05T01:17:58.493Z,0.00
2022-08-05T01:18:58.492Z,0.00
2022-08-05T01:20:01.510Z,0.00
2022-08-05T01:20:58.496Z,0.00
2022-08-05T01:21:58.494Z,0.00
2022-08-05T01:22:58.496Z,0.00
2022-08-05T01:23:58.495Z,0.00
2022-08-05T01:24:58.496Z,0.00
2022-08-05T01:25:58.495Z,0.00
2022-08-05T01:26:58.500Z,0.00
2022-08-05T01:27:58.514Z,0.00
2022-08-05T01:29:04.307Z,0.00
2022-08-05T01:29:58.501Z,0.00
2022-08-05T01:30:58.500Z,0.00
2022-08-05T01:31:58.514Z,0.00
2022-08-05T01:32:58.510Z,0.00
2022-08-05T01:33:58.500Z,0.00
2022-08-05T01:34:58.501Z,0.00
2022-08-05T01:35:58.502Z,0.00
2022-08-05T01:37:00.500Z,0.00
2022-08-05T01:37:58.503Z,0.00
2022-08-05T01:39:00.926Z,0.00
2022-08-05T01:39:59.022Z,0.00
2022-08-05T01:40:58.501Z,0.00
2022-08-05T01:41:58.505Z,0.00
2022-08-05T01:42:58.504Z,0.00
2022-08-05T01:43:58.517Z,0.00
2022-08-05T01:44:59.148Z,0.00
2022-08-05T01:45:58.507Z,0.00
2022-08-05T01:46:58.508Z,0.00
2022-08-05T01:47:58.508Z,0.00
2022-08-05T01:48:58.506Z,0.00
2022-08-05T01:50:01.862Z,0.00
2022-08-05T01:50:58.509Z,0.00
2022-08-05T01:51:58.818Z,0.00
2022-08-05T01:52:58.507Z,0.00
2022-08-05T01:53:58.978Z,0.00
2022-08-05T01:54:58.511Z,0.00
2022-08-05T01:55:58.504Z,0.00
2022-08-05T01:58:10.131Z,0.00
2022-08-05T01:58:11.342Z,0.00
2022-08-05T01:58:58.509Z,0.00
2022-08-05T01:59:58.511Z,0.00
2022-08-05T02:00:58.519Z,0.00
2022-08-05T02:01:58.908Z,0.00
2022-08-05T02:02:58.513Z,0.00
2022-08-05T02:03:58.512Z,0.00
2022-08-05T02:04:58.511Z,0.00
2022-08-05T02:06:00.892Z,0.00
2022-08-05T02:06:58.519Z,0.00
2022-08-05T02:08:01.067Z,0.00
2022-08-05T02:08:59.327Z,0.00
2022-08-05T02:09:58.515Z,0.00
2022-08-05T02:10:58.515Z,0.00
2022-08-05T02:11:58.518Z,0.00
2022-08-05T02:12:58.518Z,0.00
2022-08-05T02:13:58.516Z,0.00
2022-08-05T02:14:58.515Z,0.00
2022-08-05T02:15:58.517Z,0.00
2022-08-05T02:16:58.518Z,0.00
2022-08-05T02:18:32.992Z,0.00
2022-08-05T02:18:58.523Z,0.00
2022-08-05T02:19:58.517Z,0.00
2022-08-05T02:20:58.711Z,0.00
2022-08-05T02:21:58.518Z,0.00
2022-08-05T02:22:58.524Z,0.00
2022-08-05T02:23:58.518Z,0.00
2022-08-05T02:25:00.091Z,0.00
2022-08-05T02:25:58.519Z,0.00
2022-08-05T02:26:58.519Z,0.00
2022-08-05T02:28:00.322Z,0.00
2022-08-05T02:28:58.578Z,0.00
2022-08-05T02:30:00.728Z,0.00
2022-08-05T02:30:58.521Z,0.00
2022-08-05T02:31:58.520Z,0.00
2022-08-05T02:32:58.522Z,0.00
2022-08-05T02:33:58.528Z,0.00
2022-08-05T02:34:58.522Z,0.00
2022-08-05T02:36:00.823Z,0.00
2022-08-05T02:36:58.521Z,0.00
2022-08-05T02:38:00.180Z,0.00
2022-08-05T02:38:58.556Z,0.00
2022-08-05T02:39:58.523Z,0.00
2022-08-05T02:40:58.525Z,0.00
2022-08-05T02:42:01.286Z,0.00
2022-08-05T02:42:58.524Z,0.00
2022-08-05T02:44:06.151Z,0.00
2022-08-05T02:44:58.523Z,0.00
2022-08-05T02:45:58.523Z,0.00
2022-08-05T02:47:00.662Z,0.00
2022-08-05T02:48:11.576Z,0.00
2022-08-05T02:48:58.530Z,0.00
2022-08-05T02:49:58.526Z,0.00
2022-08-05T02:50:58.525Z,0.00
2022-08-05T02:52:04.031Z,0.00
2022-08-05T02:52:58.530Z,4.00
2022-08-05T02:54:04.006Z,0.00
2022-08-05T02:54:58.531Z,0.00
2022-08-05T02:56:00.351Z,0.00
2022-08-05T02:56:58.532Z,4.00
2022-08-05T02:58:10.336Z,0.00
2022-08-05T02:58:58.525Z,4.00
2022-08-05T02:59:59.373Z,4.00
2022-08-05T03:00:58.530Z,4.00
2022-08-05T03:01:58.569Z,8.00
2022-08-05T03:02:58.528Z,4.00
2022-08-05T03:04:02.733Z,4.00
2022-08-05T03:04:58.529Z,8.00
2022-08-05T03:06:57.162Z,8.00
2022-08-05T03:06:59.510Z,8.00
2022-08-05T03:08:04.579Z,12.00
2022-08-05T03:08:58.530Z,12.00
2022-08-05T03:09:58.529Z,16.00
2022-08-05T03:11:53.642Z,16.00
2022-08-05T03:11:58.526Z,20.00
2022-08-05T03:13:19.538Z,20.00
2022-08-05T03:14:03.084Z,24.00
2022-08-05T03:14:58.529Z,24.00
2022-08-05T03:15:58.531Z,28.00
2022-08-05T03:16:59.075Z,32.00
2022-08-05T03:17:59.414Z,36.00
2022-08-05T03:18:58.537Z,40.00
2022-08-05T03:19:58.678Z,44.00
2022-08-05T03:20:58.533Z,52.00
2022-08-05T03:21:58.592Z,60.00
2022-08-05T03:22:58.531Z,64.00
2022-08-05T03:23:58.532Z,76.00
2022-08-05T03:24:58.532Z,80.00
2022-08-05T03:26:04.971Z,88.00
2022-08-05T03:26:58.532Z,100.00
2022-08-05T03:28:00.120Z,112.00
2022-08-05T03:28:58.532Z,120.00
2022-08-05T03:30:07.208Z,128.00
2022-08-05T03:30:58.532Z,144.00
2022-08-05T03:32:00.701Z,148.00
2022-08-05T03:32:58.537Z,160.00
2022-08-05T03:33:58.532Z,172.00
2022-08-05T03:34:58.532Z,176.00
2022-08-05T03:35:58.533Z,188.00
2022-08-05T03:36:58.531Z,200.00
2022-08-05T03:37:58.555Z,212.00
2022-08-05T03:38:58.602Z,228.00
2022-08-05T03:40:01.646Z,248.00
2022-08-05T03:40:58.665Z,264.00
2022-08-05T03:41:58.533Z,288.00
2022-08-05T03:42:58.532Z,308.00
2022-08-05T03:44:11.246Z,328.00
2022-08-05T03:44:58.532Z,344.00
2022-08-05T03:45:59.081Z,364.00
2022-08-05T03:46:58.533Z,388.00
2022-08-05T03:47:58.538Z,408.00
2022-08-05T03:48:58.535Z,428.00
2022-08-05T03:49:58.532Z,452.00
2022-08-05T03:51:04.840Z,472.00
2022-08-05T03:52:37.043Z,496.00
2022-08-05T03:55:00.395Z,512.00
2022-08-05T03:55:06.917Z,532.00
2022-08-05T03:55:54.083Z,552.00
2022-08-05T03:56:10.215Z,568.00
2022-08-05T03:56:58.912Z,588.00
2022-08-05T03:57:58.533Z,600.00
2022-08-05T03:58:58.530Z,616.00
2022-08-05T03:59:58.532Z,628.00
2022-08-05T04:00:58.601Z,644.00
2022-08-05T04:01:58.900Z,664.00
2022-08-05T04:02:59.232Z,688.00
2022-08-05T04:04:10.276Z,712.00
2022-08-05T04:04:58.536Z,740.00
2022-08-05T04:05:59.261Z,772.00
2022-08-05T04:06:58.536Z,808.00
2022-08-05T04:07:59.081Z,848.00
2022-08-05T04:08:58.535Z,888.00
2022-08-05T04:09:58.534Z,932.00
2022-08-05T04:10:58.537Z,984.00
2022-08-05T04:11:58.535Z,1024.00
2022-08-05T04:12:58.821Z,1080.00
2022-08-05T04:13:58.537Z,1140.00
2022-08-05T04:14:58.593Z,1184.00
2022-08-05T04:16:04.434Z,1252.00
2022-08-05T04:16:58.543Z,1340.00
2022-08-05T04:18:00.105Z,1416.00
2022-08-05T04:18:58.536Z,1484.00
2022-08-05T04:19:58.711Z,1564.00
2022-08-05T04:20:58.536Z,1632.00
2022-08-05T04:22:08.747Z,1704.00
2022-08-05T04:22:58.536Z,1780.00
2022-08-05T04:24:06.226Z,1808.00
2022-08-05T04:24:58.539Z,1820.00
2022-08-05T04:26:00.847Z,1820.00
2022-08-05T04:26:58.537Z,1824.00
2022-08-05T04:28:00.642Z,1848.00
2022-08-05T04:28:58.537Z,1892.00
2022-08-05T04:29:58.543Z,1928.00
2022-08-05T04:30:58.537Z,1980.00
2022-08-05T04:31:58.539Z,2056.00
2022-08-05T04:32:58.539Z,2092.00
2022-08-05T04:34:19.697Z,2116.00
2022-08-05T04:34:58.540Z,2196.00
2022-08-05T04:36:11.244Z,2284.00
2022-08-05T04:36:58.540Z,2364.00
2022-08-05T04:38:01.968Z,2444.00
2022-08-05T04:38:58.559Z,2624.00
2022-08-05T04:39:58.540Z,2892.00
2022-08-05T04:40:58.780Z,3108.00
2022-08-05T04:41:58.543Z,3312.00
2022-08-05T04:42:58.545Z,3504.00
2022-08-05T04:43:58.541Z,3744.00
2022-08-05T04:44:58.545Z,4092.00
2022-08-05T04:45:58.545Z,4496.00
2022-08-05T04:46:58.767Z,4640.00
2022-08-05T04:47:58.543Z,4504.00
2022-08-05T04:48:58.848Z,4648.00
2022-08-05T04:50:02.635Z,4988.00
2022-08-05T04:51:03.673Z,4976.00
2022-08-05T04:52:00.596Z,5120.00
2022-08-05T04:52:58.549Z,5052.00
2022-08-05T04:53:58.554Z,4744.00
2022-08-05T04:54:58.914Z,4728.00
2022-08-05T04:56:15.441Z,4632.00
2022-08-05T04:56:59.717Z,4516.00
2022-08-05T04:57:58.559Z,4180.00
2022-08-05T04:58:58.555Z,3488.00
2022-08-05T04:59:58.980Z,3368.00
2022-08-05T05:00:58.646Z,3384.00
2022-08-05T05:02:07.284Z,3488.00
2022-08-05T05:03:03.658Z,3648.00
2022-08-05T05:03:58.561Z,4124.00
2022-08-05T05:05:01.611Z,3836.00
2022-08-05T05:06:35.885Z,4028.00
2022-08-05T05:06:58.562Z,3532.00
2022-08-05T05:08:01.822Z,3196.00
2022-08-05T05:08:58.566Z,3048.00
2022-08-05T05:09:58.574Z,3056.00
2022-08-05T05:10:58.573Z,3340.00
2022-08-05T05:12:01.825Z,3560.00
2022-08-05T05:12:58.602Z,3692.00
2022-08-05T05:13:58.570Z,3792.00
2022-08-05T05:14:58.576Z,3852.00
2022-08-05T05:16:01.770Z,3936.00
2022-08-05T05:16:58.573Z,3916.00
2022-08-05T05:17:58.848Z,3804.00
2022-08-05T05:19:18.090Z,3616.00
2022-08-05T05:19:58.579Z,3316.00
2022-08-05T05:20:58.650Z,3036.00
2022-08-05T05:21:58.582Z,2804.00
2022-08-05T05:22:58.580Z,2560.00
2022-08-05T05:24:03.991Z,2352.00
2022-08-05T05:25:01.344Z,2204.00
2022-08-05T05:25:58.584Z,2112.00
2022-08-05T05:26:58.588Z,2064.00
2022-08-05T05:27:58.594Z,2040.00
2022-08-05T05:28:58.588Z,2028.00
2022-08-05T05:30:05.053Z,2048.00
2022-08-05T05:30:58.590Z,2144.00
2022-08-05T05:31:58.591Z,2344.00
2022-08-05T05:33:00.548Z,2692.00
2022-08-05T05:34:01.887Z,3152.00
2022-08-05T05:34:58.593Z,3592.00
2022-08-05T05:35:58.596Z,3756.00
2022-08-05T05:36:58.596Z,3816.00
2022-08-05T05:37:59.574Z,3836.00
2022-08-05T05:38:58.632Z,3812.00
2022-08-05T05:39:58.603Z,3676.00
2022-08-05T05:40:58.607Z,3404.00
2022-08-05T05:41:58.605Z,3148.00
2022-08-05T05:42:58.604Z,2944.00
2022-08-05T05:44:00.586Z,2844.00
2022-08-05T05:44:59.537Z,2796.00
2022-08-05T05:45:58.609Z,2836.00
2022-08-05T05:46:58.609Z,2888.00
2022-08-05T05:48:06.293Z,2888.00
2022-08-05T05:48:58.611Z,2840.00
2022-08-05T05:50:01.495Z,2704.00
2022-08-05T05:50:58.612Z,2388.00
2022-08-05T05:51:58.615Z,2088.00
2022-08-05T05:52:58.612Z,1956.00
2022-08-05T05:53:59.896Z,1888.00
2022-08-05T05:54:58.618Z,1788.00
2022-08-05T05:56:01.367Z,1692.00
2022-08-05T05:56:58.616Z,1672.00
2022-08-05T05:57:58.624Z,1764.00
2022-08-05T05:58:58.623Z,1904.00
2022-08-05T05:59:58.622Z,2204.00
2022-08-05T06:00:58.623Z,2568.00
2022-08-05T06:01:58.634Z,2968.00
2022-08-05T06:02:58.627Z,3376.00
2022-08-05T06:04:02.127Z,3820.00
2022-08-05T06:04:58.691Z,4168.00
2022-08-05T06:05:58.650Z,4444.00
2022-08-05T06:06:58.632Z,4744.00
2022-08-05T06:08:02.296Z,4940.00
2022-08-05T06:08:58.660Z,4896.00
2022-08-05T06:10:00.937Z,4468.00
2022-08-05T06:10:58.631Z,4136.00
2022-08-05T06:12:01.192Z,3908.00
2022-08-05T06:12:58.635Z,3692.00
2022-08-05T06:14:00.436Z,3668.00
2022-08-05T06:14:58.638Z,4340.00
2022-08-05T06:16:28.839Z,4908.00
2022-08-05T06:16:58.639Z,4732.00
2022-08-05T06:17:58.637Z,5308.00
2022-08-05T06:19:00.783Z,5532.00
2022-08-05T06:19:59.511Z,5628.00
2022-08-05T06:20:58.638Z,6000.00
2022-08-05T06:21:58.644Z,6324.00
2022-08-05T06:22:58.643Z,6548.00
2022-08-05T06:23:58.642Z,7008.00
2022-08-05T06:24:58.642Z,7364.00
2022-08-05T06:26:12.150Z,8204.00
2022-08-05T06:26:58.644Z,10096.00
2022-08-05T06:28:10.757Z,20896.00
2022-08-05T06:28:58.645Z,21920.00
2022-08-05T06:30:04.275Z,21440.00
2022-08-05T06:30:58.656Z,18592.00
2022-08-05T06:31:58.650Z,14816.00
2022-08-05T06:32:58.651Z,12788.00
2022-08-05T06:34:07.570Z,15520.00
2022-08-05T06:34:59.199Z,14656.00
2022-08-05T06:36:03.926Z,9464.00
2022-08-05T06:36:58.791Z,9604.00
2022-08-05T06:38:00.977Z,9796.00
2022-08-05T06:38:58.686Z,9764.00
2022-08-05T06:39:58.660Z,9596.00
2022-08-05T06:40:58.660Z,9544.00
2022-08-05T06:41:59.140Z,11508.00
2022-08-05T06:42:58.658Z,9812.00
2022-08-05T06:44:00.768Z,9916.00
2022-08-05T06:44:58.665Z,13132.00
2022-08-05T06:46:06.981Z,28320.00
2022-08-05T06:46:58.682Z,30816.00
2022-08-05T06:48:44.067Z,30112.00
2022-08-05T06:48:59.678Z,27968.00
2022-08-05T06:50:01.185Z,30080.00
2022-08-05T06:50:58.674Z,32192.00
2022-08-05T06:51:58.674Z,24256.00
2022-08-05T06:53:11.315Z,13664.00
2022-08-05T06:53:58.681Z,15532.00
2022-08-05T06:54:58.683Z,13956.00
2022-08-05T06:55:58.684Z,20064.00
2022-08-05T06:57:57.652Z,12936.00
2022-08-05T06:58:11.805Z,12828.00
2022-08-05T06:58:58.688Z,14112.00
2022-08-05T06:59:58.698Z,28768.00
2022-08-05T07:00:58.743Z,24224.00
2022-08-05T07:01:58.699Z,29376.00
2022-08-05T07:02:58.703Z,18176.00
2022-08-05T07:03:58.700Z,25920.00
2022-08-05T07:04:58.704Z,21312.00
2022-08-05T07:05:58.708Z,14832.00
2022-08-05T07:06:58.708Z,28864.00
2022-08-05T07:07:58.712Z,24512.00
2022-08-05T07:08:59.081Z,19680.00
2022-08-05T07:09:58.723Z,32128.00
2022-08-05T07:10:58.721Z,12748.00
2022-08-05T07:12:00.615Z,13996.00
2022-08-05T07:12:58.727Z,16352.00
2022-08-05T07:13:59.857Z,15104.00
2022-08-05T07:14:58.730Z,8648.00
2022-08-05T07:16:01.236Z,8512.00
2022-08-05T07:17:59.723Z,8860.00
2022-08-05T07:18:08.903Z,9448.00
2022-08-05T07:18:58.749Z,8892.00
2022-08-05T07:20:58.748Z,8684.00
2022-08-05T07:22:00.527Z,7660.00
2022-08-05T07:22:58.756Z,6272.00
2022-08-05T07:23:58.754Z,5772.00
2022-08-05T07:24:58.759Z,5828.00
2022-08-05T07:25:58.761Z,5616.00
2022-08-05T07:26:58.758Z,5608.00
2022-08-05T07:28:04.161Z,6328.00
2022-08-05T07:28:59.792Z,6888.00
2022-08-05T07:30:27.724Z,7072.00
2022-08-05T07:30:58.770Z,7552.00
2022-08-05T07:31:58.769Z,8424.00
2022-08-05T07:32:58.795Z,9780.00
2022-08-05T07:33:59.821Z,11564.00
2022-08-05T07:34:58.788Z,14904.00
2022-08-05T07:36:03.943Z,21440.00
2022-08-05T07:36:58.781Z,18656.00
2022-08-05T07:37:58.792Z,28992.00
2022-08-05T07:38:58.852Z,12348.00
2022-08-05T07:40:04.362Z,10388.00
2022-08-05T07:41:00.302Z,8500.00
2022-08-05T07:42:14.720Z,6948.00
2022-08-05T07:42:58.787Z,6464.00
2022-08-05T07:43:58.923Z,5724.00
2022-08-05T07:44:58.795Z,5204.00
2022-08-05T07:45:59.082Z,5528.00
2022-08-05T07:46:58.796Z,3972.00
2022-08-05T07:47:58.799Z,3172.00
2022-08-05T07:49:02.529Z,2580.00
2022-08-05T07:49:58.802Z,2188.00
2022-08-05T07:50:58.802Z,1856.00
2022-08-05T07:51:58.806Z,1520.00
2022-08-05T07:52:58.808Z,1244.00
2022-08-05T07:53:58.808Z,1072.00
2022-08-05T07:54:58.810Z,972.00
2022-08-05T07:56:06.554Z,964.00
2022-08-05T07:57:14.012Z,1044.00
2022-08-05T07:58:03.128Z,1180.00
2022-08-05T07:58:59.546Z,1344.00
2022-08-05T07:59:58.816Z,1420.00
2022-08-05T08:00:58.835Z,1516.00
2022-08-05T08:01:58.836Z,1600.00
2022-08-05T08:03:15.201Z,1664.00
2022-08-05T08:03:58.824Z,1768.00
2022-08-05T08:04:58.820Z,1944.00
2022-08-05T08:05:58.822Z,2180.00
2022-08-05T08:06:58.823Z,2436.00
2022-08-05T08:07:59.603Z,2460.00
2022-08-05T08:08:58.823Z,2440.00
2022-08-05T08:09:58.828Z,2392.00
2022-08-05T08:10:58.828Z,2640.00
2022-08-05T08:12:00.078Z,2896.00
2022-08-05T08:12:58.871Z,3020.00
2022-08-05T08:14:00.862Z,3084.00
2022-08-05T08:15:02.414Z,2580.00
2022-08-05T08:16:35.793Z,2468.00
2022-08-05T08:16:58.832Z,3036.00
2022-08-05T08:17:58.834Z,3712.00
2022-08-05T08:18:58.837Z,4696.00
2022-08-05T08:20:22.477Z,5256.00
2022-08-05T08:21:02.503Z,5212.00
2022-08-05T08:21:58.836Z,4740.00
2022-08-05T08:22:58.836Z,4608.00
2022-08-05T08:24:02.727Z,4788.00
2022-08-05T08:25:03.082Z,4684.00
2022-08-05T08:25:59.831Z,4408.00
2022-08-05T08:26:58.840Z,4152.00
2022-08-05T08:27:58.842Z,4184.00
2022-08-05T08:29:02.168Z,3972.00
2022-08-05T08:30:05.749Z,3704.00
2022-08-05T08:30:58.846Z,3496.00
2022-08-05T08:31:58.844Z,3516.00
2022-08-05T08:33:02.668Z,3764.00
2022-08-05T08:33:58.847Z,4196.00
2022-08-05T08:34:58.851Z,4372.00
2022-08-05T08:36:18.444Z,4220.00
2022-08-05T08:37:04.893Z,4764.00
2022-08-05T08:37:58.850Z,5988.00
2022-08-05T08:38:58.932Z,8040.00
2022-08-05T08:39:58.886Z,8976.00
2022-08-05T08:40:58.855Z,7872.00
2022-08-05T08:41:59.778Z,6492.00
2022-08-05T08:45:16.726Z,5968.00
2022-08-05T08:45:18.027Z,5212.00
2022-08-05T08:45:18.731Z,5780.00
2022-08-05T08:45:58.856Z,4456.00
2022-08-05T08:46:58.859Z,4060.00
2022-08-05T08:48:06.746Z,3880.00
2022-08-05T08:50:07.797Z,3232.00
2022-08-05T08:50:22.230Z,2604.00
2022-08-05T08:51:07.746Z,2320.00
2022-08-05T08:52:03.215Z,2364.00
2022-08-05T08:52:58.863Z,2412.00
2022-08-05T08:53:58.863Z,2508.00
2022-08-05T08:54:58.863Z,2972.00
2022-08-05T08:56:05.016Z,3460.00
2022-08-05T08:56:58.866Z,3728.00
2022-08-05T08:57:58.883Z,4300.00
2022-08-05T08:58:58.869Z,4896.00
2022-08-05T08:59:58.869Z,4720.00
2022-08-05T09:00:58.893Z,3688.00
2022-08-05T09:02:01.169Z,2956.00
2022-08-05T09:02:58.873Z,2604.00
2022-08-05T09:03:58.874Z,2452.00
2022-08-05T09:05:17.626Z,2424.00
2022-08-05T09:06:08.867Z,2352.00
2022-08-05T09:06:58.914Z,2252.00
2022-08-05T09:07:59.227Z,2344.00
2022-08-05T09:08:58.876Z,2600.00
2022-08-05T09:09:58.877Z,2852.00
2022-08-05T09:10:58.876Z,3308.00
2022-08-05T09:12:03.390Z,3976.00
2022-08-05T09:13:04.511Z,4612.00
2022-08-05T09:14:00.767Z,5664.00
2022-08-05T09:15:05.622Z,7648.00
2022-08-05T09:15:58.882Z,7972.00
2022-08-05T09:16:58.881Z,6804.00
2022-08-05T09:17:58.882Z,6184.00
2022-08-05T09:18:59.417Z,5740.00
2022-08-05T09:20:02.926Z,5864.00
2022-08-05T09:20:58.884Z,5628.00
2022-08-05T09:22:22.888Z,5708.00
2022-08-05T09:23:04.871Z,6084.00
2022-08-05T09:24:02.349Z,5996.00
2022-08-05T09:24:58.898Z,5784.00
2022-08-05T09:26:02.798Z,6360.00
2022-08-05T09:26:58.888Z,7256.00
2022-08-05T09:28:05.139Z,7524.00
2022-08-05T09:28:58.888Z,7960.00
2022-08-05T09:30:01.230Z,8252.00
2022-08-05T09:30:58.893Z,9668.00
2022-08-05T09:32:40.852Z,9412.00
2022-08-05T09:32:58.900Z,8536.00
2022-08-05T09:33:59.276Z,7980.00
2022-08-05T09:34:58.896Z,6992.00
2022-08-05T09:35:58.896Z,5976.00
2022-08-05T09:36:59.824Z,4912.00
2022-08-05T09:38:16.366Z,4244.00
2022-08-05T09:38:58.932Z,3780.00
2022-08-05T09:39:58.962Z,3588.00
2022-08-05T09:40:58.902Z,3544.00
2022-08-05T09:41:58.901Z,3636.00
2022-08-05T09:42:58.902Z,4200.00
2022-08-05T09:43:58.903Z,4668.00
2022-08-05T09:45:17.596Z,4676.00
2022-08-05T09:46:06.828Z,4184.00
2022-08-05T09:46:58.905Z,3648.00
2022-08-05T09:47:58.910Z,3584.00
2022-08-05T09:49:07.595Z,3244.00
2022-08-05T09:50:02.364Z,2524.00
2022-08-05T09:50:58.911Z,1984.00
2022-08-05T09:51:58.912Z,1848.00
2022-08-05T09:52:58.915Z,1948.00
2022-08-05T09:53:59.375Z,2152.00
2022-08-05T09:54:58.916Z,2156.00
2022-08-05T09:56:04.036Z,1888.00
2022-08-05T09:57:01.722Z,1668.00
2022-08-05T09:57:59.982Z,1536.00
2022-08-05T09:58:58.931Z,1568.00
2022-08-05T09:59:58.920Z,1660.00
2022-08-05T10:00:58.919Z,1608.00
2022-08-05T10:01:58.923Z,1432.00
2022-08-05T10:02:59.250Z,1352.00
2022-08-05T10:03:59.887Z,1420.00
2022-08-05T10:04:58.924Z,1524.00
2022-08-05T10:05:58.926Z,1672.00
2022-08-05T10:07:01.430Z,1752.00
2022-08-05T10:08:35.972Z,1816.00
2022-08-05T10:08:58.926Z,1892.00
2022-08-05T10:10:14.042Z,2220.00
2022-08-05T10:10:58.929Z,2576.00
2022-08-05T10:11:58.928Z,2500.00
2022-08-05T10:12:58.928Z,2188.00
2022-08-05T10:13:58.930Z,2092.00
2022-08-05T10:14:58.934Z,2040.00
2022-08-05T10:15:58.931Z,2208.00
2022-08-05T10:16:58.935Z,2800.00
2022-08-05T10:17:58.936Z,3404.00
2022-08-05T10:18:58.933Z,4420.00
2022-08-05T10:20:03.948Z,6628.00
2022-08-05T10:20:58.936Z,8396.00
2022-08-05T10:21:58.936Z,8996.00
2022-08-05T10:22:58.935Z,7120.00
2022-08-05T10:24:00.323Z,5696.00
2022-08-05T10:24:58.934Z,4972.00
2022-08-05T10:25:58.937Z,4336.00
2022-08-05T10:27:00.505Z,3952.00
2022-08-05T10:28:13.576Z,3700.00
2022-08-05T10:28:58.979Z,3956.00
2022-08-05T10:31:20.356Z,4468.00
2022-08-05T10:32:47.374Z,5356.00
2022-08-05T10:32:51.846Z,7080.00
2022-08-05T10:33:01.911Z,7940.00
2022-08-05T10:33:58.941Z,7692.00
2022-08-05T10:35:00.832Z,7288.00
2022-08-05T10:36:00.071Z,6772.00
2022-08-05T10:36:58.946Z,5972.00
2022-08-05T10:37:58.945Z,5336.00
2022-08-05T10:38:58.986Z,4656.00
2022-08-05T10:40:04.177Z,4344.00
2022-08-05T10:40:59.115Z,4920.00
2022-08-05T10:42:00.994Z,5648.00
2022-08-05T10:42:58.954Z,6244.00
2022-08-05T10:43:59.281Z,7076.00
2022-08-05T10:44:58.953Z,7620.00
2022-08-05T10:46:06.188Z,8292.00
2022-08-05T10:46:58.954Z,9044.00
2022-08-05T10:48:31.962Z,9428.00
2022-08-05T10:49:02.652Z,9556.00
2022-08-05T10:50:31.980Z,8356.00
2022-08-05T10:50:58.957Z,6528.00
2022-08-05T10:52:00.255Z,5364.00
2022-08-05T10:52:59.008Z,4376.00
2022-08-05T10:54:00.888Z,4712.00
2022-08-05T10:54:58.976Z,4696.00
2022-08-05T10:56:04.632Z,4928.00
2022-08-05T10:56:58.972Z,4712.00
2022-08-05T10:57:58.970Z,4716.00
2022-08-05T10:59:07.199Z,5000.00
2022-08-05T11:00:02.451Z,5304.00
2022-08-05T11:01:02.774Z,5352.00
2022-08-05T11:02:05.381Z,5388.00
2022-08-05T11:02:58.981Z,5688.00
2022-08-05T11:03:59.031Z,5748.00
2022-08-05T11:04:58.982Z,4512.00
2022-08-05T11:05:58.986Z,4136.00
2022-08-05T11:06:58.984Z,3984.00
2022-08-05T11:08:01.123Z,4260.00
2022-08-05T11:08:58.988Z,4696.00
2022-08-05T11:10:04.086Z,5308.00
2022-08-05T11:11:00.886Z,5924.00
2022-08-05T11:11:58.991Z,6268.00
2022-08-05T11:12:59.000Z,6128.00
2022-08-05T11:13:58.994Z,6076.00
2022-08-05T11:15:11.911Z,6140.00
2022-08-05T11:16:01.576Z,5996.00
2022-08-05T11:17:01.171Z,5868.00
2022-08-05T11:18:03.730Z,5516.00
2022-08-05T11:18:59.003Z,5156.00
2022-08-05T11:20:10.501Z,5008.00
2022-08-05T11:20:59.233Z,4988.00
2022-08-05T11:21:59.008Z,5060.00
2022-08-05T11:23:05.763Z,5080.00
2022-08-05T11:24:04.139Z,4616.00
2022-08-05T11:26:03.149Z,4532.00
2022-08-05T11:26:05.736Z,4312.00
2022-08-05T11:26:59.018Z,4356.00
2022-08-05T11:28:00.550Z,4568.00
2022-08-05T11:29:06.744Z,4620.00
2022-08-05T11:29:59.022Z,4496.00
2022-08-05T11:30:59.025Z,4268.00
2022-08-05T11:32:00.469Z,4152.00
2022-08-05T11:32:59.030Z,4444.00
2022-08-05T11:33:59.030Z,4616.00
2022-08-05T11:34:59.032Z,4508.00
2022-08-05T11:36:07.706Z,4464.00
2022-08-05T11:36:59.037Z,4404.00
2022-08-05T11:38:29.638Z,4324.00
2022-08-05T11:38:59.357Z,4312.00
2022-08-05T11:40:03.186Z,4340.00
2022-08-05T11:41:03.430Z,3864.00
2022-08-05T11:42:04.207Z,3344.00
2022-08-05T11:42:59.050Z,4272.00
2022-08-05T11:44:05.640Z,5512.00
2022-08-05T11:44:59.051Z,6668.00
2022-08-05T11:46:27.344Z,6584.00
2022-08-05T11:47:12.054Z,6760.00
2022-08-05T11:47:59.062Z,6732.00
2022-08-05T11:48:59.065Z,7228.00
2022-08-05T11:49:59.062Z,6836.00
2022-08-05T11:50:59.063Z,6856.00
2022-08-05T11:51:59.067Z,7556.00
2022-08-05T11:52:59.069Z,7972.00
2022-08-05T11:53:59.068Z,6536.00
2022-08-05T11:54:59.072Z,5632.00
2022-08-05T11:55:59.073Z,5140.00
2022-08-05T11:56:59.078Z,4676.00
2022-08-05T11:58:09.557Z,4384.00
2022-08-05T11:58:59.079Z,4344.00
2022-08-05T11:59:59.084Z,4240.00
2022-08-05T12:00:59.088Z,4168.00
2022-08-05T12:01:59.090Z,4156.00
2022-08-05T12:02:59.143Z,4048.00
2022-08-05T12:03:59.090Z,4500.00
2022-08-05T12:04:59.971Z,4664.00
2022-08-05T12:05:59.102Z,4192.00
2022-08-05T12:06:59.099Z,3924.00
2022-08-05T12:08:03.702Z,3752.00
2022-08-05T12:08:59.104Z,3700.00
2022-08-05T12:10:01.958Z,3760.00
2022-08-05T12:10:59.108Z,3800.00
2022-08-05T12:11:59.112Z,3700.00
2022-08-05T12:13:00.310Z,3664.00
2022-08-05T12:13:59.431Z,3696.00
2022-08-05T12:14:59.120Z,3728.00
2022-08-05T12:15:59.121Z,3828.00
2022-08-05T12:16:59.123Z,3904.00
2022-08-05T12:18:10.231Z,3960.00
2022-08-05T12:18:59.130Z,4020.00
2022-08-05T12:20:25.691Z,4040.00
2022-08-05T12:20:59.134Z,4072.00
2022-08-05T12:21:59.136Z,4048.00
2022-08-05T12:22:59.152Z,4128.00
2022-08-05T12:24:00.099Z,4296.00
2022-08-05T12:24:59.144Z,4264.00